Time;durP1;ratioP1;P1;durP2;ratioP2;P2;SDS_P1;SDS_P2;PMS_P1;PMS_P2;Temp;Humidity;BMP_temperature;BMP_pressure;BME280_temperature;BME280_humidity;BME280_pressure;Samples;Min_cycle;Max_cycle;Signal;HPM_P1;HPM_P2
2023/03/16 00:01:44;;;;;;;5.80;3.22;;;;;;;8.07;46.98;101758.22;4885072;28;114920;-72
2023/03/16 00:04:11;;;;;;;8.02;3.08;;;;;;;8.08;46.68;101751.16;4889656;28;114592;-71
2023/03/16 00:06:39;;;;;;;5.90;3.22;;;;;;;8.11;46.74;101756.41;4888375;28;124284;-72
2023/03/16 00:09:06;;;;;;;5.47;3.10;;;;;;;8.13;46.91;101754.59;4892834;28;123850;-71
2023/03/16 00:11:33;;;;;;;6.70;3.05;;;;;;;8.14;46.85;101751.06;4888650;28;115076;-71
2023/03/16 00:14:03;;;;;;;5.32;3.08;;;;;;;8.14;46.91;101751.06;4889084;28;114817;-71
2023/03/16 00:16:30;;;;;;;4.70;2.85;;;;;;;8.15;46.93;101747.50;4884702;28;124475;-71
2023/03/16 00:18:58;;;;;;;6.10;3.28;;;;;;;8.16;47.10;101749.25;4891374;28;124298;-71
2023/03/16 00:21:25;;;;;;;5.03;2.90;;;;;;;8.17;47.14;101751.88;4877406;28;113333;-72
2023/03/16 00:23:52;;;;;;;5.57;3.05;;;;;;;8.18;46.83;101758.88;4883315;28;114157;-71
2023/03/16 00:26:19;;;;;;;7.47;3.25;;;;;;;8.21;46.92;101757.06;4885120;28;123871;-71
2023/03/16 00:28:46;;;;;;;5.03;3.50;;;;;;;8.21;46.91;101752.66;4885240;28;124049;-71
2023/03/16 00:31:13;;;;;;;7.25;3.30;;;;;;;8.23;47.18;101755.28;4881550;28;114306;-72
2023/03/16 00:33:44;;;;;;;5.95;3.25;;;;;;;8.22;47.04;101748.28;4882549;28;114036;-72
2023/03/16 00:36:11;;;;;;;6.13;3.20;;;;;;;8.23;47.14;101739.44;4878119;28;125192;-71
2023/03/16 00:38:43;;;;;;;5.03;3.15;;;;;;;8.24;47.01;101742.06;4887428;28;124012;-71
2023/03/16 00:41:13;;;;;;;5.65;3.30;;;;;;;8.24;47.37;101731.50;4880593;28;113882;-71
2023/03/16 00:43:43;;;;;;;6.13;3.17;;;;;;;8.24;47.07;101731.50;4889547;28;114477;-71
2023/03/16 00:46:13;;;;;;;5.28;3.17;;;;;;;8.25;47.17;101732.34;4880860;28;122912;-71
2023/03/16 00:48:43;;;;;;;9.30;3.53;;;;;;;8.25;47.27;101727.97;4876791;28;123671;-71
2023/03/16 00:51:14;;;;;;;5.55;3.38;;;;;;;8.26;47.26;101718.28;4881737;28;114090;-71
2023/03/16 00:53:43;;;;;;;5.40;3.03;;;;;;;8.26;47.43;101719.13;4886848;28;114784;-71
2023/03/16 00:56:12;;;;;;;6.38;3.70;;;;;;;8.25;47.11;101714.78;4885245;28;123415;-71
2023/03/16 00:58:42;;;;;;;6.25;3.05;;;;;;;8.26;47.30;101708.56;4879232;28;124178;-71
2023/03/16 01:01:18;;;;;;;5.72;3.13;;;;;;;8.26;47.46;101703.28;4881289;28;114800;-71
2023/03/16 01:03:47;;;;;;;7.72;3.33;;;;;;;8.26;47.39;101698.03;4877262;28;115281;-72
2023/03/16 01:06:16;;;;;;;7.07;3.33;;;;;;;8.25;47.33;101696.31;4883960;28;124664;-71
2023/03/16 01:08:44;;;;;;;5.50;3.38;;;;;;;8.25;47.35;101696.31;4891109;28;123646;-71
2023/03/16 01:11:16;;;;;;;6.40;3.47;;;;;;;8.26;47.34;101698.03;4873747;28;113880;-71
2023/03/16 01:13:45;;;;;;;5.80;3.80;;;;;;;8.26;47.54;101695.38;4876167;28;114105;-71
2023/03/16 01:16:13;;;;;;;6.82;3.75;;;;;;;8.24;47.55;101694.53;4879438;28;124258;-71
2023/03/16 01:18:41;;;;;;;5.13;3.30;;;;;;;8.23;47.46;101687.56;4880271;28;123943;-71
2023/03/16 01:21:12;;;;;;;6.90;3.60;;;;;;;8.21;47.49;101684.03;4876838;28;113116;-71
2023/03/16 01:23:40;;;;;;;6.38;3.30;;;;;;;8.22;47.32;101679.66;4877216;28;114282;-71
2023/03/16 01:26:08;;;;;;;6.15;3.35;;;;;;;8.19;47.75;101680.56;4885734;28;124012;-71
2023/03/16 01:28:35;;;;;;;5.25;3.55;;;;;;;8.19;47.73;101680.56;4881699;28;123317;-71
2023/03/16 01:31:08;;;;;;;6.60;3.38;;;;;;;8.17;47.86;101677.09;4868718;28;112520;-72
2023/03/16 01:33:37;;;;;;;6.05;3.40;;;;;;;8.17;47.44;101671.81;4876946;28;113596;-72
2023/03/16 01:36:11;;;;;;;6.45;3.40;;;;;;;8.16;47.72;101664.84;4882775;28;124083;-71
2023/03/16 01:38:45;;;;;;;5.25;3.28;;;;;;;8.15;47.82;101665.72;4885169;28;123569;-71
2023/03/16 01:41:13;;;;;;;5.35;3.60;;;;;;;8.14;47.80;101658.72;4878669;28;113131;-71
2023/03/16 01:43:42;;;;;;;6.05;3.50;;;;;;;8.13;47.53;101662.25;4878916;28;114574;-71
2023/03/16 01:46:28;;;;;;;4.70;3.38;;;;;;;8.13;47.57;101654.34;4875939;28;123549;-71
2023/03/16 01:49:04;;;;;;;4.80;3.08;;;;;;;8.12;47.83;101652.59;4863249;28;123652;-71
2023/03/16 01:51:49;;;;;;;5.35;3.10;;;;;;;8.11;47.86;101651.72;4882450;28;115994;-71
2023/03/16 01:54:30;;;;;;;5.63;3.22;;;;;;;8.06;47.87;101650.09;4883125;28;113790;-71
2023/03/16 01:57:24;;;;;;;4.40;3.10;;;;;;;8.04;47.75;101655.38;4879868;28;124000;-71
2023/03/16 02:00:09;;;;;;;5.30;3.30;;;;;;;8.03;47.84;101647.53;4873685;28;124080;-71
2023/03/16 02:02:51;;;;;;;6.82;3.08;;;;;;;8.01;47.80;101644.06;4877718;28;114598;-71
2023/03/16 02:05:41;;;;;;;5.35;3.05;;;;;;;7.98;47.88;101640.56;4882401;28;112905;-71
2023/03/16 02:08:12;;;;;;;5.70;2.90;;;;;;;7.98;47.87;101635.28;4880954;28;124660;-71
2023/03/16 02:10:40;;;;;;;8.25;3.20;;;;;;;7.98;48.11;101645.84;4881718;28;123945;-71
2023/03/16 02:13:07;;;;;;;4.40;2.83;;;;;;;7.97;48.09;101641.47;4876444;28;113724;-71
2023/03/16 02:15:36;;;;;;;5.47;3.25;;;;;;;7.97;47.89;101638.84;4873584;28;113290;-72
2023/03/16 02:18:06;;;;;;;4.80;2.60;;;;;;;7.97;48.22;101633.56;4883574;28;124638;-71
2023/03/16 02:21:24;;;;;;;5.90;3.00;;;;;;;7.96;48.09;101623.91;4874184;28;123813;-71
2023/03/16 02:23:52;;;;;;;5.88;2.97;;;;;;;7.96;47.88;101613.34;4882505;28;113989;-71
2023/03/16 02:26:28;;;;;;;4.90;3.00;;;;;;;7.95;48.08;101606.34;4882800;28;113860;-71
2023/03/16 02:29:10;;;;;;;6.53;2.85;;;;;;;7.95;48.00;101616.91;4864327;28;123871;-71
2023/03/16 02:31:38;;;;;;;4.10;2.60;;;;;;;7.95;48.28;101609.00;4888150;28;123256;-71
2023/03/16 02:34:08;;;;;;;4.88;3.00;;;;;;;7.94;48.09;101614.28;4879157;28;113962;-71
2023/03/16 02:36:37;;;;;;;6.68;2.85;;;;;;;7.95;48.25;101614.25;4883519;28;113747;-72
2023/03/16 02:39:04;;;;;;;6.72;2.88;;;;;;;7.96;48.22;101600.16;4878093;28;124659;-71
2023/03/16 02:41:40;;;;;;;3.63;2.45;;;;;;;7.98;48.66;101608.91;4879666;28;123039;-71
2023/03/16 02:44:14;;;;;;;5.13;3.00;;;;;;;7.99;48.32;101615.94;4886264;28;114692;-71
2023/03/16 02:46:45;;;;;;;4.43;2.60;;;;;;;8.01;48.28;101613.25;4879507;28;116210;-70
2023/03/16 02:49:31;;;;;;;5.10;2.88;;;;;;;8.04;48.45;101604.41;4880878;28;123206;-71
2023/03/16 02:51:58;;;;;;;3.93;2.77;;;;;;;8.05;48.50;101606.16;4880545;28;124104;-72
2023/03/16 02:54:25;;;;;;;3.55;2.53;;;;;;;8.06;48.30;101602.59;4889051;28;113396;-71
2023/03/16 02:56:53;;;;;;;6.97;2.88;;;;;;;8.08;48.12;101614.88;4881080;28;113132;-71
2023/03/16 02:59:21;;;;;;;5.68;3.00;;;;;;;8.10;48.66;101606.91;4878798;28;125660;-71
2023/03/16 03:01:48;;;;;;;4.50;2.63;;;;;;;8.10;48.36;101607.78;4877492;28;123643;-71
2023/03/16 03:04:16;;;;;;;4.47;3.00;;;;;;;8.12;48.37;101605.13;4883161;28;113918;-71
2023/03/16 03:06:43;;;;;;;6.40;3.03;;;;;;;8.15;48.45;101610.31;4887453;28;114227;-71
2023/03/16 03:09:10;;;;;;;4.93;2.75;;;;;;;8.16;48.26;101596.22;4881351;28;123271;-71
2023/03/16 03:11:39;;;;;;;4.13;2.88;;;;;;;8.17;48.25;101600.59;4881330;28;123190;-71
2023/03/16 03:14:06;;;;;;;5.00;2.97;;;;;;;8.19;48.20;101601.41;4884240;28;113929;-72
2023/03/16 03:16:36;;;;;;;7.32;3.20;;;;;;;8.19;48.52;101611.97;4860718;28;113670;-72
2023/03/16 03:19:03;;;;;;;4.90;2.80;;;;;;;8.19;48.53;101601.41;4882909;28;124172;-71
2023/03/16 03:21:34;;;;;;;4.57;2.78;;;;;;;8.23;48.67;101603.09;4883075;28;123127;-71
2023/03/16 03:24:01;;;;;;;4.75;2.53;;;;;;;8.24;48.31;101604.81;4890942;28;113636;-71
2023/03/16 03:26:28;;;;;;;4.00;2.50;;;;;;;8.25;48.50;101601.28;4887424;28;114189;-71
2023/03/16 03:28:59;;;;;;;5.53;2.80;;;;;;;8.24;48.77;101599.53;4865752;28;124799;-71
2023/03/16 03:31:26;;;;;;;5.05;2.95;;;;;;;8.23;48.86;101597.81;4885666;28;123334;-72
2023/03/16 03:33:53;;;;;;;4.05;2.55;;;;;;;8.23;48.55;101589.91;4882922;28;115311;-71
2023/03/16 03:36:21;;;;;;;6.35;2.90;;;;;;;8.23;48.61;101587.28;4886983;28;114782;-72
2023/03/16 03:38:48;;;;;;;5.65;2.75;;;;;;;8.22;49.01;101588.16;4868097;28;123688;-72
2023/03/16 03:41:18;;;;;;;4.55;2.90;;;;;;;8.21;48.74;101583.78;4880346;28;123322;-71
2023/03/16 03:43:45;;;;;;;4.10;2.85;;;;;;;8.20;48.74;101576.78;4882588;28;113713;-71
2023/03/16 03:46:15;;;;;;;4.80;2.60;;;;;;;8.20;48.87;101579.41;4882504;28;113313;-72
2023/03/16 03:48:42;;;;;;;7.28;2.60;;;;;;;8.19;48.98;101580.31;4885911;28;123754;-71
2023/03/16 03:51:10;;;;;;;5.35;2.28;;;;;;;8.18;48.74;101578.59;4880173;28;122924;-71
2023/03/16 03:53:46;;;;;;;5.70;2.53;;;;;;;8.16;48.92;101575.13;4882987;28;112437;-71
2023/03/16 03:56:18;;;;;;;4.22;2.10;;;;;;;8.15;49.17;101568.94;4877706;28;113426;-71
2023/03/16 03:58:45;;;;;;;3.72;2.33;;;;;;;8.14;49.10;101566.38;4883250;28;125427;-71
2023/03/16 04:01:19;;;;;;;4.15;2.35;;;;;;;8.14;49.09;101566.38;4881511;28;121973;-71
2023/03/16 04:03:47;;;;;;;3.83;2.15;;;;;;;8.13;49.08;101560.19;4889506;28;114142;-71
2023/03/16 04:06:15;;;;;;;4.82;2.25;;;;;;;8.13;49.23;101559.34;4882329;28;113288;-71
2023/03/16 04:08:42;;;;;;;2.95;2.00;;;;;;;8.12;48.87;101568.19;4875190;28;123639;-72
2023/03/16 04:11:13;;;;;;;5.72;2.50;;;;;;;8.12;49.25;101560.28;4865972;28;123485;-71
2023/03/16 04:13:40;;;;;;;4.00;2.00;;;;;;;8.12;48.92;101558.50;4878992;28;113593;-71
2023/03/16 04:16:08;;;;;;;5.15;2.28;;;;;;;8.13;49.18;101559.34;4884425;28;115382;-71
2023/03/16 04:18:42;;;;;;;4.10;2.28;;;;;;;8.12;49.22;101552.34;4878369;28;124068;-71
2023/03/16 04:21:15;;;;;;;3.92;2.10;;;;;;;8.11;49.20;101555.88;4884132;28;123292;-72
2023/03/16 04:23:45;;;;;;;8.35;2.38;;;;;;;8.11;49.07;101558.53;4882086;28;114464;-71
2023/03/16 04:26:12;;;;;;;3.40;2.10;;;;;;;8.11;49.07;101566.44;4887355;28;114296;-71
2023/03/16 04:28:43;;;;;;;4.75;2.42;;;;;;;8.09;49.03;101563.81;4881190;28;123823;-71
2023/03/16 04:31:13;;;;;;;4.28;2.35;;;;;;;8.10;49.13;101572.59;4882814;28;123429;-72
2023/03/16 04:33:44;;;;;;;6.63;2.28;;;;;;;8.11;49.26;101566.44;4890546;28;97448;-72
2023/03/16 04:36:12;;;;;;;4.43;2.40;;;;;;;8.09;49.06;101558.53;4881610;28;113592;-71
2023/03/16 04:38:40;;;;;;;3.90;2.45;;;;;;;8.09;49.27;101552.41;4878271;28;123148;-71
2023/03/16 04:41:10;;;;;;;3.83;2.50;;;;;;;8.09;49.25;101552.41;4887744;28;124142;-71
2023/03/16 04:43:43;;;;;;;8.05;2.75;;;;;;;8.08;49.22;101550.66;4884558;28;113910;-72
2023/03/16 04:46:20;;;;;;;4.68;2.28;;;;;;;8.09;49.01;101555.06;4883154;28;113153;-71
2023/03/16 04:48:47;;;;;;;4.90;2.10;;;;;;;8.08;48.99;101550.66;4880545;28;124868;-71
2023/03/16 04:51:14;;;;;;;4.88;2.40;;;;;;;8.08;49.55;101545.38;4884905;28;125092;-71
2023/03/16 04:53:50;;;;;;;5.78;2.60;;;;;;;8.08;49.23;101541.00;4886468;28;113769;-71
2023/03/16 04:56:27;;;;;;;6.55;2.17;;;;;;;8.09;49.36;101540.06;4871027;28;113492;-71
2023/03/16 04:58:59;;;;;;;5.45;2.50;;;;;;;8.10;49.29;101535.66;4878459;28;123498;-71
2023/03/16 05:01:31;;;;;;;4.75;2.20;;;;;;;8.11;49.25;101534.78;4883302;28;123671;-71
2023/03/16 05:04:01;;;;;;;3.20;2.10;;;;;;;8.11;49.34;101525.06;4886419;28;113834;-71
2023/03/16 05:06:31;;;;;;;4.75;2.40;;;;;;;8.12;49.24;101525.97;4887322;28;113189;-71
2023/03/16 05:09:00;;;;;;;5.90;2.13;;;;;;;8.12;49.19;101528.59;4875640;28;123421;-71
2023/03/16 05:11:28;;;;;;;6.45;2.20;;;;;;;8.13;49.05;101532.97;4883566;28;124278;-71
2023/03/16 05:13:58;;;;;;;4.47;1.90;;;;;;;8.14;49.45;101529.44;4875163;28;115077;-71
2023/03/16 05:16:25;;;;;;;4.53;2.38;;;;;;;8.14;49.41;101529.44;4886959;28;115575;-71
2023/03/16 05:18:53;;;;;;;6.35;2.33;;;;;;;8.15;49.30;101528.50;4877584;28;123441;-70
2023/03/16 05:21:20;;;;;;;4.22;2.10;;;;;;;8.16;49.45;101530.25;4874228;28;123561;-71
2023/03/16 05:23:57;;;;;;;4.32;2.30;;;;;;;8.16;49.47;101523.22;4887412;28;112897;-71
2023/03/16 05:26:27;;;;;;;3.92;2.20;;;;;;;8.16;49.16;101527.63;4887409;28;113673;-71
2023/03/16 05:28:55;;;;;;;6.07;2.40;;;;;;;8.15;49.10;101525.88;4877172;28;123676;-71
2023/03/16 05:31:25;;;;;;;3.70;2.30;;;;;;;8.15;49.15;101520.59;4876555;28;123498;-71
2023/03/16 05:33:57;;;;;;;4.95;2.20;;;;;;;8.14;49.12;101519.75;4879577;28;113957;-71
2023/03/16 05:36:25;;;;;;;4.10;2.13;;;;;;;8.16;49.47;101506.50;4881632;28;113720;-71
2023/03/16 05:38:58;;;;;;;4.32;2.28;;;;;;;8.17;49.61;101518.78;4880564;28;124780;-71
2023/03/16 05:41:35;;;;;;;6.53;2.28;;;;;;;8.16;49.37;101517.06;4877242;28;123309;-71
2023/03/16 05:44:08;;;;;;;2.75;2.13;;;;;;;8.16;49.44;101519.72;4880632;28;113027;-71
2023/03/16 05:47:01;;;;;;;5.47;2.33;;;;;;;8.18;49.53;101523.19;4880695;28;114536;-71
2023/03/16 05:49:30;;;;;;;6.10;2.22;;;;;;;8.18;49.62;101520.53;4868887;28;122493;-71
2023/03/16 05:51:59;;;;;;;5.47;2.60;;;;;;;8.18;49.22;101520.53;4884042;28;123971;-71
2023/03/16 05:54:27;;;;;;;3.90;2.35;;;;;;;8.18;49.49;101524.03;4883683;28;113783;-71
2023/03/16 05:56:54;;;;;;;3.83;2.33;;;;;;;8.20;49.44;101518.72;4879663;28;113304;-71
2023/03/16 05:59:21;;;;;;;5.50;2.97;;;;;;;8.20;49.41;101524.00;4885593;28;123329;-71
2023/03/16 06:01:53;;;;;;;5.47;2.67;;;;;;;8.22;49.46;101522.19;4883423;28;122380;-71
2023/03/16 06:04:20;;;;;;;4.95;2.53;;;;;;;8.23;49.46;101521.31;4881086;28;115408;-72
2023/03/16 06:06:48;;;;;;;4.88;2.60;;;;;;;8.24;49.61;101525.66;4885117;28;115051;-72
2023/03/16 06:09:20;;;;;;;4.32;2.28;;;;;;;8.24;49.38;101517.75;4883402;28;123852;-71
2023/03/16 06:11:47;;;;;;;3.15;2.47;;;;;;;8.25;49.50;101516.84;4892003;28;121947;-71
2023/03/16 06:14:16;;;;;;;3.80;2.30;;;;;;;8.26;49.48;101513.28;4883717;28;113598;-71
2023/03/16 06:16:44;;;;;;;4.10;2.30;;;;;;;8.28;49.67;101506.19;4883720;28;113157;-72
2023/03/16 06:19:13;;;;;;;5.68;2.55;;;;;;;8.30;49.44;101507.03;4884333;28;123486;-71
2023/03/16 06:21:41;;;;;;;5.40;2.30;;;;;;;8.35;49.36;101501.66;4886991;28;124227;-72
2023/03/16 06:24:11;;;;;;;6.88;3.00;;;;;;;8.35;49.69;101507.78;4898170;28;114968;-71
2023/03/16 06:26:38;;;;;;;5.65;2.50;;;;;;;8.36;49.62;101504.25;4882928;28;113172;-71
2023/03/16 06:29:07;;;;;;;4.90;2.88;;;;;;;8.38;49.75;101502.44;4880833;28;123350;-72
2023/03/16 06:31:37;;;;;;;7.50;2.45;;;;;;;8.39;49.75;101498.88;4882075;28;123555;-71
2023/03/16 06:34:05;;;;;;;7.93;2.70;;;;;;;8.41;49.65;101505.91;4884335;28;113582;-71
2023/03/16 06:36:32;;;;;;;5.45;2.65;;;;;;;8.43;50.03;101504.13;4886670;28;113413;-71
2023/03/16 06:39:03;;;;;;;4.10;2.80;;;;;;;8.46;49.99;101509.34;4863281;28;123814;-72
2023/03/16 06:41:42;;;;;;;4.00;2.70;;;;;;;8.49;49.85;101509.25;4877778;28;123625;-72
2023/03/16 06:44:12;;;;;;;5.38;2.55;;;;;;;8.50;49.98;101506.56;4889274;28;114603;-72
2023/03/16 06:46:50;;;;;;;3.92;2.17;;;;;;;8.52;50.05;101514.44;4872462;28;113080;-72
2023/03/16 06:49:17;;;;;;;3.53;2.50;;;;;;;8.54;49.71;101504.72;4886071;28;124440;-72
2023/03/16 06:51:44;;;;;;;6.75;2.70;;;;;;;8.56;49.85;101510.81;4886665;28;124457;-72
2023/03/16 06:54:11;;;;;;;5.30;2.80;;;;;;;8.56;49.82;101506.41;4884320;28;114399;-71
2023/03/16 06:56:39;;;;;;;6.38;2.72;;;;;;;8.58;49.97;101515.13;4880038;28;114189;-72
2023/03/16 06:59:06;;;;;;;4.40;2.85;;;;;;;8.60;50.14;101507.19;4878148;28;124092;-72
2023/03/16 07:01:36;;;;;;;7.60;2.67;;;;;;;8.64;50.25;101514.13;4884848;28;125336;-72
2023/03/16 07:04:03;;;;;;;5.97;3.08;;;;;;;8.67;50.21;101507.91;4876273;28;113365;-72
2023/03/16 07:06:32;;;;;;;5.82;2.90;;;;;;;8.69;50.00;101522.78;4884958;28;114100;-72
2023/03/16 07:09:00;;;;;;;5.70;3.00;;;;;;;8.71;50.08;101518.34;4902825;28;122674;-73
2023/03/16 07:11:32;;;;;;;4.38;2.70;;;;;;;8.73;50.46;101519.16;4899281;28;123883;-71
2023/03/16 07:14:00;;;;;;;5.22;2.92;;;;;;;8.74;50.33;101515.63;4907722;28;112576;-72
2023/03/16 07:16:30;;;;;;;6.18;3.22;;;;;;;8.75;50.16;101519.13;4903908;28;113081;-71
2023/03/16 07:19:00;;;;;;;6.78;2.90;;;;;;;8.77;50.37;101504.97;4893136;28;123832;-71
2023/03/16 07:21:28;;;;;;;20.65;4.00;;;;;;;8.78;50.06;101505.84;4884973;28;122869;-74
2023/03/16 07:23:55;;;;;;;12.93;3.45;;;;;;;8.79;50.32;101504.06;4886484;28;113454;-72
2023/03/16 07:26:27;;;;;;;9.57;3.72;;;;;;;8.80;50.20;101503.13;4889429;28;115260;-72
2023/03/16 07:28:58;;;;;;;7.07;3.30;;;;;;;8.80;50.48;101492.56;4890023;28;123422;-72
2023/03/16 07:31:26;;;;;;;7.65;2.97;;;;;;;8.81;50.56;101495.19;4888333;28;123958;-72
2023/03/16 07:33:56;;;;;;;6.45;3.20;;;;;;;8.84;50.32;101494.25;4880801;28;114089;-72
2023/03/16 07:36:32;;;;;;;6.97;3.30;;;;;;;8.86;50.44;101497.72;4871782;28;113456;-73
2023/03/16 07:39:00;;;;;;;9.10;3.47;;;;;;;8.88;50.52;101498.53;4869656;28;123291;-72
2023/03/16 07:41:27;;;;;;;7.22;3.03;;;;;;;8.91;50.53;101506.34;4880299;28;124596;-73
2023/03/16 07:44:13;;;;;;;7.68;2.80;;;;;;;8.93;50.27;101507.22;4878939;28;114534;-73
2023/03/16 07:46:40;;;;;;;5.78;2.67;;;;;;;8.96;50.40;101509.75;4882678;28;114140;-74
2023/03/16 07:49:09;;;;;;;5.03;2.97;;;;;;;8.99;50.60;101509.69;4891883;28;123649;-73
2023/03/16 07:51:38;;;;;;;7.00;3.03;;;;;;;9.02;50.56;101499.00;4885787;28;121864;-74
2023/03/16 07:54:06;;;;;;;4.85;2.58;;;;;;;9.05;50.54;101498.94;4888753;28;113587;-73
2023/03/16 07:56:35;;;;;;;5.00;2.60;;;;;;;9.08;50.60;101504.13;4905599;28;114948;-72
2023/03/16 07:59:26;;;;;;;4.05;2.60;;;;;;;9.09;50.79;101503.22;4890213;28;123240;-74
2023/03/16 08:01:53;;;;;;;4.60;2.63;;;;;;;9.12;50.62;101500.50;4879245;28;125968;-73
2023/03/16 08:04:21;;;;;;;7.10;2.67;;;;;;;9.14;50.71;101498.66;4885523;28;113519;-74
2023/03/16 08:06:58;;;;;;;5.78;2.25;;;;;;;9.15;50.59;101504.81;4885886;28;113994;-73
2023/03/16 08:09:34;;;;;;;9.68;2.85;;;;;;;9.17;50.89;101497.69;4887325;28;125660;-73
2023/03/16 08:12:05;;;;;;;6.85;3.05;;;;;;;9.19;50.61;101492.38;4888560;28;123464;-73
2023/03/16 08:14:35;;;;;;;5.88;2.40;;;;;;;9.21;50.70;101487.91;4893555;28;114077;-73
2023/03/16 08:17:11;;;;;;;3.97;2.55;;;;;;;9.23;50.80;101486.09;4892746;28;113162;-73
2023/03/16 08:19:39;;;;;;;5.57;2.60;;;;;;;9.24;50.85;101487.84;4888457;28;125420;-73
2023/03/16 08:22:09;;;;;;;7.32;2.63;;;;;;;9.25;50.57;101479.88;4877065;28;123205;-73
2023/03/16 08:24:41;;;;;;;3.55;2.17;;;;;;;9.28;50.65;101478.91;4873593;28;114231;-74
2023/03/16 08:27:10;;;;;;;4.50;2.33;;;;;;;9.30;50.96;101469.13;4885945;28;112880;-73
2023/03/16 08:29:40;;;;;;;6.97;2.47;;;;;;;9.35;51.09;101472.53;4888583;28;123795;-73
2023/03/16 08:32:12;;;;;;;6.55;2.65;;;;;;;9.41;51.11;101479.41;4858413;28;123024;-73
2023/03/16 08:34:42;;;;;;;6.80;2.47;;;;;;;9.46;50.82;101481.00;4873909;28;115393;-74
2023/03/16 08:37:10;;;;;;;4.55;2.17;;;;;;;9.50;50.95;101479.13;4859072;28;114326;-73
2023/03/16 08:39:40;;;;;;;7.35;2.33;;;;;;;9.53;50.77;101479.91;4878538;28;123136;-73
2023/03/16 08:42:10;;;;;;;4.18;2.30;;;;;;;9.57;50.85;101475.41;4892087;28;123497;-73
2023/03/16 08:44:42;;;;;;;4.30;2.10;;;;;;;9.62;51.06;101456.72;4893141;28;115679;-73
2023/03/16 08:47:10;;;;;;;6.47;2.20;;;;;;;9.69;50.93;101474.13;4893139;28;113105;-73
2023/03/16 08:49:41;;;;;;;3.78;2.03;;;;;;;9.75;51.28;101463.34;4881598;28;123123;-73
2023/03/16 08:52:11;;;;;;;3.30;2.13;;;;;;;9.84;51.13;101463.06;4875503;28;124511;-72
2023/03/16 08:54:40;;;;;;;5.35;2.35;;;;;;;9.90;50.86;101467.31;4876476;28;114145;-74
2023/03/16 08:57:18;;;;;;;6.40;2.03;;;;;;;9.94;50.81;101464.53;4871535;28;114056;-73
2023/03/16 08:59:45;;;;;;;3.22;2.10;;;;;;;9.99;50.80;101471.44;4885414;28;123124;-73
2023/03/16 09:02:13;;;;;;;5.88;1.85;;;;;;;10.04;50.98;101461.53;4882427;28;124191;-72
2023/03/16 09:04:40;;;;;;;5.32;1.92;;;;;;;10.12;50.95;101462.19;4893128;28;113883;-75
2023/03/16 09:07:08;;;;;;;3.63;2.10;;;;;;;10.18;50.79;101464.63;4891494;28;113034;-72
2023/03/16 09:09:36;;;;;;;4.38;2.15;;;;;;;10.26;50.97;101465.22;4884757;28;124206;-72
2023/03/16 09:12:04;;;;;;;6.82;2.63;;;;;;;10.33;50.92;101456.19;4891717;28;123828;-72
2023/03/16 09:14:32;;;;;;;3.33;2.00;;;;;;;10.41;50.78;101457.69;4899610;28;114177;-72
2023/03/16 09:16:59;;;;;;;6.93;2.00;;;;;;;10.47;50.46;101457.47;4893633;28;114212;-72
2023/03/16 09:19:26;;;;;;;3.47;2.08;;;;;;;10.53;50.77;101462.59;4891854;28;123914;-72
2023/03/16 09:22:00;;;;;;;2.70;1.65;;;;;;;10.59;50.54;101457.06;4898274;28;124443;-72
2023/03/16 09:24:28;;;;;;;3.30;1.77;;;;;;;10.65;50.62;101451.53;4903594;28;114283;-72
2023/03/16 09:26:55;;;;;;;3.72;1.80;;;;;;;10.70;50.60;101449.59;4890416;28;114598;-72
2023/03/16 09:29:23;;;;;;;5.90;2.15;;;;;;;10.74;50.45;101452.13;4891452;28;124054;-72
2023/03/16 09:31:50;;;;;;;3.50;1.90;;;;;;;10.78;50.27;101451.13;4891839;28;124162;-72
2023/03/16 09:34:17;;;;;;;5.50;1.75;;;;;;;10.81;50.11;101451.00;4887740;28;116442;-72
2023/03/16 09:36:45;;;;;;;2.72;1.73;;;;;;;10.85;50.28;101447.31;4897167;28;113879;-72
2023/03/16 09:39:12;;;;;;;5.85;2.05;;;;;;;10.89;50.14;101454.25;4880668;28;124562;-73
2023/03/16 09:41:58;;;;;;;3.83;1.83;;;;;;;10.94;50.25;101446.97;4890916;28;123627;-71
2023/03/16 09:44:40;;;;;;;5.93;2.00;;;;;;;11.01;50.34;101443.19;4891489;28;113868;-72
2023/03/16 09:47:10;;;;;;;4.07;1.85;;;;;;;11.06;50.35;101441.22;4881810;28;113456;-72
2023/03/16 09:49:46;;;;;;;5.78;1.80;;;;;;;11.14;50.31;101437.44;4887747;28;123937;-72
2023/03/16 09:52:25;;;;;;;2.65;1.77;;;;;;;11.20;50.28;101447.78;4896014;28;122889;-73
2023/03/16 09:55:06;;;;;;;5.82;1.83;;;;;;;11.28;50.38;101441.28;4882987;28;113840;-73
2023/03/16 09:57:38;;;;;;;4.03;1.70;;;;;;;11.39;50.19;101432.03;4891314;28;114377;-73
2023/03/16 10:00:25;;;;;;;5.18;1.90;;;;;;;11.48;50.20;101437.84;4887885;28;123834;-73
2023/03/16 10:03:14;;;;;;;3.78;1.83;;;;;;;11.57;50.20;101435.78;4880679;28;124491;-73
2023/03/16 10:05:41;;;;;;;7.07;1.90;;;;;;;11.64;50.17;101438.13;4872646;28;114485;-73
2023/03/16 10:08:21;;;;;;;3.38;1.50;;;;;;;11.72;50.05;101435.16;4885998;28;114080;-73
2023/03/16 10:10:57;;;;;;;3.55;1.75;;;;;;;11.81;50.04;101434.78;4883496;28;124678;-73
2023/03/16 10:13:55;;;;;;;4.72;1.80;;;;;;;11.91;49.85;101423.81;4879428;28;122626;-73
2023/03/16 10:16:41;;;;;;;4.55;2.25;;;;;;;12.00;49.97;101408.38;4889964;28;116234;-71
2023/03/16 10:19:18;;;;;;;3.78;1.60;;;;;;;12.09;49.84;101407.09;4897713;28;113479;-73
2023/03/16 10:21:46;;;;;;;3.47;1.70;;;;;;;12.19;49.79;101408.44;4884937;28;123164;-75
2023/03/16 10:24:44;;;;;;;4.22;1.73;;;;;;;12.29;49.76;101410.72;4881883;28;124077;-73
2023/03/16 10:27:19;;;;;;;3.63;1.77;;;;;;;12.40;49.65;101395.19;4888755;28;113922;-73
2023/03/16 10:29:46;;;;;;;4.28;2.17;;;;;;;12.52;49.84;101394.63;4877480;28;113864;-73
2023/03/16 10:32:15;;;;;;;3.97;1.67;;;;;;;12.66;49.67;101392.22;4890944;28;124284;-72
2023/03/16 10:34:51;;;;;;;5.03;1.90;;;;;;;12.82;49.61;101391.53;4893410;28;123896;-73
2023/03/16 10:37:19;;;;;;;3.28;1.63;;;;;;;12.96;49.45;101397.06;4883487;28;114575;-73
2023/03/16 10:39:47;;;;;;;5.68;1.90;;;;;;;13.07;49.18;101390.38;4884222;28;112877;-73
2023/03/16 10:42:16;;;;;;;3.03;1.70;;;;;;;13.17;49.10;101391.69;4885627;28;123467;-73
2023/03/16 10:44:44;;;;;;;3.05;2.10;;;;;;;13.27;48.96;101392.13;4864645;28;122323;-73
2023/03/16 10:47:18;;;;;;;7.72;2.00;;;;;;;13.34;48.81;101389.13;4880408;28;113532;-73
2023/03/16 10:49:48;;;;;;;4.00;1.90;;;;;;;13.46;48.82;101384.16;4880691;28;113678;-73
2023/03/16 10:52:22;;;;;;;3.38;1.70;;;;;;;13.57;48.63;101392.47;4882979;28;124397;-73
2023/03/16 10:54:55;;;;;;;5.78;1.80;;;;;;;13.65;48.49;101376.97;4880903;28;124009;-73
2023/03/16 10:57:29;;;;;;;3.50;2.00;;;;;;;13.74;48.36;101381.84;4882505;28;114167;-74
2023/03/16 11:00:12;;;;;;;4.10;1.60;;;;;;;13.82;48.33;101369.03;4890117;28;114018;-73
2023/03/16 11:02:39;;;;;;;2.85;1.80;;;;;;;13.95;48.48;101373.72;4892808;28;124139;-73
2023/03/16 11:05:33;;;;;;;2.45;1.65;;;;;;;14.07;48.20;101367.78;4900246;28;123789;-72
2023/03/16 11:08:00;;;;;;;2.85;1.50;;;;;;;14.25;48.25;101365.09;4888005;28;115193;-73
2023/03/16 11:10:34;;;;;;;5.68;1.90;;;;;;;14.37;48.12;101364.44;4890512;28;115144;-73
2023/03/16 11:13:16;;;;;;;5.82;2.00;;;;;;;14.49;48.41;101361.16;4888508;28;123717;-73
2023/03/16 11:15:52;;;;;;;2.70;1.50;;;;;;;14.63;47.77;101364.91;4887326;28;123327;-73
2023/03/16 11:18:34;;;;;;;4.75;1.80;;;;;;;14.70;47.46;101355.63;4887845;28;114685;-73
2023/03/16 11:21:15;;;;;;;3.25;1.60;;;;;;;14.79;47.30;101355.13;4883995;28;114155;-72
2023/03/16 11:23:48;;;;;;;3.30;1.70;;;;;;;14.87;47.05;101347.56;4884773;28;123985;-72
2023/03/16 11:26:27;;;;;;;4.45;1.60;;;;;;;14.91;46.63;101343.78;4882169;28;124190;-73
2023/03/16 11:29:19;;;;;;;3.88;1.77;;;;;;;14.95;46.76;101326.66;4873249;28;114451;-73
2023/03/16 11:31:52;;;;;;;5.50;1.85;;;;;;;15.01;46.55;101322.78;4877486;28;114617;-72
2023/03/16 11:34:29;;;;;;;5.72;1.80;;;;;;;15.06;46.45;101322.53;4875557;28;124036;-72
2023/03/16 11:37:24;;;;;;;2.58;1.60;;;;;;;15.10;46.36;101326.75;4881350;28;123303;-73
2023/03/16 11:40:14;;;;;;;3.33;1.50;;;;;;;15.11;45.96;101318.69;4872041;28;114337;-73
2023/03/16 11:43:01;;;;;;;3.47;1.55;;;;;;;15.10;46.15;101318.75;4889571;28;111825;-73
2023/03/16 11:45:35;;;;;;;3.63;1.73;;;;;;;15.13;46.04;101318.59;4889762;28;123893;-73